Time;durP1;ratioP1;P1;durP2;ratioP2;P2;SDS_P1;SDS_P2;PMS_P1;PMS_P2;Temp;Humidity;BMP_temperature;BMP_pressure;BME280_temperature;BME280_humidity;BME280_pressure;Samples;Min_cycle;Max_cycle;Signal;HPM_P1;HPM_P2
2023/07/09 00:02:25;;;;;;;960.42;731.92;;;18.40;1.00;;;;;;5014915;28;20430;-58
2023/07/09 00:05:17;;;;;;;964.47;736.33;;;18.40;1.00;;;;;;5015396;28;20486;-58
2023/07/09 00:07:46;;;;;;;965.40;733.97;;;18.40;1.00;;;;;;5013954;28;20462;-58
2023/07/09 00:10:20;;;;;;;977.58;746.75;;;18.40;99.90;;;;;;5015665;28;20527;-58
2023/07/09 00:12:47;;;;;;;963.58;740.50;;;18.30;99.90;;;;;;4989988;28;20431;-58
2023/07/09 00:15:18;;;;;;;979.55;746.38;;;18.30;99.90;;;;;;4997835;28;21019;-58
2023/07/09 00:18:20;;;;;;;965.60;739.25;;;18.20;99.90;;;;;;5022877;28;20462;-63
2023/07/09 00:21:01;;;;;;;937.50;704.67;;;18.20;99.90;;;;;;5009200;28;20446;-64
2023/07/09 00:23:38;;;;;;;954.22;716.20;;;18.00;99.90;;;;;;5017492;28;20438;-64
2023/07/09 00:26:09;;;;;;;973.03;770.13;;;17.90;1.00;;;;;;5013728;28;20442;-64
2023/07/09 00:28:37;;;;;;;862.22;777.80;;;17.90;99.90;;;;;;5018184;28;20605;-64
2023/07/09 00:31:04;;;;;;;939.65;778.63;;;17.80;99.90;;;;;;5016836;28;20481;-64
2023/07/09 00:33:32;;;;;;;922.92;770.30;;;17.70;1.00;;;;;;5016534;28;20427;-64
2023/07/09 00:35:59;;;;;;;931.80;776.05;;;17.70;1.00;;;;;;5018619;28;20470;-64
2023/07/09 00:38:30;;;;;;;921.67;683.35;;;17.60;96.70;;;;;;5016906;28;20501;-64
2023/07/09 00:41:12;;;;;;;948.78;709.53;;;17.50;99.90;;;;;;5018302;28;20466;-64
2023/07/09 00:43:41;;;;;;;981.63;764.57;;;17.40;1.00;;;;;;5016131;28;21114;-64
2023/07/09 00:46:46;;;;;;;936.83;778.05;;;17.50;1.00;;;;;;5010337;28;20561;-64
2023/07/09 00:49:46;;;;;;;944.80;701.58;;;17.40;1.00;;;;;;5018659;28;20484;-64
2023/07/09 00:52:28;;;;;;;966.78;724.65;;;17.40;99.90;;;;;;5010470;28;20431;-64
2023/07/09 00:54:56;;;;;;;949.45;702.75;;;17.40;1.00;;;;;;5011283;28;21237;-64
2023/07/09 00:57:26;;;;;;;958.40;711.15;;;17.40;1.00;;;;;;5018053;28;20438;-64
2023/07/09 00:59:58;;;;;;;944.47;698.13;;;17.40;99.90;;;;;;5018528;28;20435;-64
2023/07/09 01:02:26;;;;;;;965.17;724.27;;;17.40;99.90;;;;;;5015965;28;20805;-64
2023/07/09 01:05:00;;;;;;;974.50;735.53;;;17.40;99.90;;;;;;5015304;28;20446;-64
2023/07/09 01:07:29;;;;;;;931.13;758.73;;;17.40;1.00;;;;;;5019942;28;21134;-64
2023/07/09 01:09:56;;;;;;;874.00;762.70;;;17.40;1.00;;;;;;5013827;28;20430;-64
2023/07/09 01:12:24;;;;;;;953.08;734.40;;;17.40;1.00;;;;;;5017633;28;20441;-64
2023/07/09 01:14:58;;;;;;;968.95;746.72;;;17.30;1.00;;;;;;5017063;28;20514;-64
2023/07/09 01:17:27;;;;;;;959.05;745.47;;;17.30;99.90;;;;;;5017255;28;20785;-64
2023/07/09 01:19:55;;;;;;;950.88;708.47;;;17.10;99.90;;;;;;5015628;28;20434;-64
2023/07/09 01:22:23;;;;;;;974.97;734.13;;;17.00;1.00;;;;;;5014422;28;20458;-64
2023/07/09 01:25:04;;;;;;;954.97;734.60;;;17.00;1.00;;;;;;5019040;28;20923;-64
2023/07/09 01:27:33;;;;;;;934.47;688.03;;;16.80;99.90;;;;;;5015998;28;20821;-64
2023/07/09 01:30:03;;;;;;;963.35;735.30;;;16.70;99.90;;;;;;5015959;28;20427;-64
2023/07/09 01:32:30;;;;;;;886.35;729.50;;;16.70;99.90;;;;;;5017920;28;20435;-64
2023/07/09 01:35:00;;;;;;;968.08;711.13;;;16.60;99.90;;;;;;5024136;28;20832;-64
2023/07/09 01:37:27;;;;;;;976.08;731.70;;;16.50;1.00;;;;;;5015311;28;20810;-64
2023/07/09 01:40:05;;;;;;;933.35;682.38;;;16.40;99.90;;;;;;5019215;28;20438;-64
2023/07/09 01:42:42;;;;;;;952.60;720.22;;;16.40;1.00;;;;;;5018953;28;20435;-64
2023/07/09 01:45:10;;;;;;;958.92;732.53;;;16.40;1.00;;;;;;5014696;28;21017;-64
2023/07/09 01:47:38;;;;;;;830.78;743.78;;;16.40;99.90;;;;;;5018143;28;20436;-64
2023/07/09 01:50:06;;;;;;;966.87;723.50;;;16.40;99.90;;;;;;5016644;28;20457;-65
2023/07/09 01:52:34;;;;;;;846.08;725.10;;;16.30;99.90;;;;;;5016635;28;20431;-65
2023/07/09 01:55:02;;;;;;;951.13;724.50;;;16.20;1.00;;;;;;5017046;28;20466;-64
2023/07/09 01:57:34;;;;;;;966.38;715.17;;;16.20;1.00;;;;;;5016924;28;21124;-64
2023/07/09 02:00:05;;;;;;;872.33;736.72;;;16.30;1.00;;;;;;5015677;28;20481;-65
2023/07/09 02:02:32;;;;;;;665.58;607.78;;;16.30;64.00;;;;;;5016130;28;20542;-65
2023/07/09 02:05:00;;;;;;;826.85;732.60;;;16.30;92.30;;;;;;5016240;28;20438;-65
2023/07/09 02:07:28;;;;;;;961.35;719.50;;;16.20;73.10;;;;;;5018209;28;20513;-64
2023/07/09 02:09:55;;;;;;;942.17;681.28;;;16.20;98.20;;;;;;5019503;28;20513;-64
2023/07/09 02:12:21;;;;;;;959.37;696.40;;;16.10;99.90;;;;;;5014762;28;20431;-64
2023/07/09 02:14:49;;;;;;;964.53;713.88;;;16.00;99.90;;;;;;5016715;28;20480;-64
2023/07/09 02:17:16;;;;;;;924.90;664.58;;;16.00;99.90;;;;;;5016346;28;20450;-65
2023/07/09 02:19:43;;;;;;;914.60;665.85;;;16.00;99.90;;;;;;5016213;28;20464;-64
2023/07/09 02:22:11;;;;;;;930.75;671.78;;;16.00;99.90;;;;;;5013841;28;20797;-65
2023/07/09 02:24:38;;;;;;;891.67;655.88;;;16.00;99.90;;;;;;5014988;28;20513;-65
2023/07/09 02:27:10;;;;;;;907.60;653.90;;;16.00;99.90;;;;;;5001399;28;20438;-64
2023/07/09 02:29:38;;;;;;;926.70;668.23;;;15.90;99.90;;;;;;5017141;28;20429;-64
2023/07/09 02:32:05;;;;;;;914.97;694.67;;;15.90;1.00;;;;;;5017201;28;20505;-64
2023/07/09 02:34:32;;;;;;;948.67;690.30;;;15.90;1.00;;;;;;5007771;28;20431;-64
2023/07/09 02:36:59;;;;;;;873.05;694.72;;;15.90;1.00;;;;;;5016142;28;20945;-65
2023/07/09 02:39:27;;;;;;;942.73;684.60;;;15.90;99.90;;;;;;5015030;28;20782;-65
2023/07/09 02:41:53;;;;;;;935.80;692.40;;;15.90;99.90;;;;;;5016558;28;20446;-64
2023/07/09 02:44:20;;;;;;;933.03;674.47;;;15.90;99.90;;;;;;5017110;28;20458;-64
2023/07/09 02:46:48;;;;;;;947.42;692.17;;;15.90;99.90;;;;;;5013877;28;20522;-64
2023/07/09 02:49:15;;;;;;;937.78;681.83;;;15.90;1.00;;;;;;5015972;28;20435;-64
2023/07/09 02:51:42;;;;;;;943.22;686.92;;;15.80;1.00;;;;;;5017382;28;20842;-64
2023/07/09 02:54:09;;;;;;;935.13;687.80;;;15.80;1.00;;;;;;5012384;28;20424;-64
2023/07/09 02:56:38;;;;;;;941.80;693.35;;;15.80;1.00;;;;;;5011768;28;20527;-64
2023/07/09 02:59:05;;;;;;;890.97;699.38;;;15.90;1.00;;;;;;5016105;28;20447;-64
2023/07/09 03:01:34;;;;;;;911.70;690.83;;;15.90;1.00;;;;;;5014835;28;20435;-64
2023/07/09 03:04:01;;;;;;;927.05;694.20;;;16.00;1.00;;;;;;5006722;28;20449;-64
2023/07/09 03:06:29;;;;;;;942.00;699.55;;;16.00;1.00;;;;;;5014536;28;20432;-65
2023/07/09 03:08:56;;;;;;;921.25;677.53;;;15.90;1.00;;;;;;5018048;28;20462;-64
2023/07/09 03:11:23;;;;;;;787.35;699.17;;;15.90;1.00;;;;;;5019122;28;20999;-64
2023/07/09 03:13:50;;;;;;;847.38;705.22;;;15.90;1.00;;;;;;5014325;28;20494;-64
2023/07/09 03:16:18;;;;;;;920.08;692.88;;;16.00;1.00;;;;;;5014790;28;20522;-64
2023/07/09 03:18:46;;;;;;;858.50;698.05;;;16.00;1.00;;;;;;5015322;28;20435;-64
2023/07/09 03:21:15;;;;;;;316.83;289.83;;;16.10;1.00;;;;;;5008140;28;20466;-64
2023/07/09 03:23:42;;;;;;;537.67;489.98;;;16.10;1.00;;;;;;5012141;28;20430;-64
2023/07/09 03:26:09;;;;;;;32.92;31.13;;;16.10;1.00;;;;;;5016574;28;21016;-64
2023/07/09 03:28:35;;;;;;;290.13;265.90;;;16.00;1.00;;;;;;5008769;28;20464;-64
2023/07/09 03:31:02;;;;;;;395.35;361.20;;;16.00;1.00;;;;;;5012309;28;20458;-64
2023/07/09 03:33:29;;;;;;;836.47;717.97;;;15.90;1.00;;;;;;5014394;28;20863;-64
2023/07/09 03:35:56;;;;;;;757.15;676.10;;;15.90;99.90;;;;;;5014391;28;21222;-64
2023/07/09 03:38:25;;;;;;;333.17;300.77;;;15.80;99.90;;;;;;5014953;28;20429;-64
2023/07/09 03:40:53;;;;;;;495.33;450.48;;;15.70;99.90;;;;;;5014317;28;20466;-64
2023/07/09 03:43:20;;;;;;;453.85;412.92;;;15.70;99.90;;;;;;5001454;28;20505;-64
2023/07/09 03:45:48;;;;;;;659.80;602.08;;;15.70;99.90;;;;;;5015061;28;20438;-64
2023/07/09 03:48:19;;;;;;;562.70;512.22;;;15.70;1.00;;;;;;5016919;28;20445;-64
2023/07/09 03:50:47;;;;;;;683.97;621.85;;;15.70;1.00;;;;;;5012262;28;20438;-65
2023/07/09 03:53:18;;;;;;;716.77;654.57;;;15.70;1.00;;;;;;5013531;28;20979;-64
2023/07/09 03:55:46;;;;;;;774.72;703.22;;;15.70;1.00;;;;;;5017614;28;20442;-64
2023/07/09 03:58:16;;;;;;;745.00;680.03;;;15.80;1.00;;;;;;5019113;28;20430;-64
2023/07/09 04:00:43;;;;;;;373.43;340.40;;;15.80;1.00;;;;;;5017307;28;20438;-64
2023/07/09 04:03:10;;;;;;;463.83;421.08;;;15.90;1.00;;;;;;5018829;28;21025;-64
2023/07/09 04:05:37;;;;;;;127.30;118.40;;;16.00;1.00;;;;;;5017577;28;22918;-64
2023/07/09 04:08:06;;;;;;;794.38;720.55;;;16.10;1.00;;;;;;5018320;28;20986;-64
2023/07/09 04:10:33;;;;;;;711.85;641.30;;;16.40;1.00;;;;;;5001354;28;20440;-64
2023/07/09 04:13:00;;;;;;;815.45;725.28;;;16.60;1.00;;;;;;5020016;28;20483;-64
2023/07/09 04:15:27;;;;;;;811.70;733.90;;;16.70;1.00;;;;;;5016589;28;20785;-64
2023/07/09 04:17:54;;;;;;;333.58;303.67;;;16.90;1.00;;;;;;5015998;28;20431;-64
2023/07/09 04:20:21;;;;;;;111.13;102.57;;;17.00;1.00;;;;;;5016716;28;20524;-64
2023/07/09 04:22:49;;;;;;;354.50;322.55;;;17.10;99.90;;;;;;5012718;28;20431;-64
2023/07/09 04:25:15;;;;;;;814.75;734.67;;;17.30;99.90;;;;;;5019336;28;20434;-64
2023/07/09 04:27:43;;;;;;;609.20;554.35;;;17.40;99.90;;;;;;5020025;28;20462;-64
2023/07/09 04:30:12;;;;;;;687.17;626.37;;;17.50;99.90;;;;;;5017096;28;21182;-64
2023/07/09 04:32:39;;;;;;;725.72;654.35;;;17.70;99.90;;;;;;5016858;28;20466;-64
2023/07/09 04:35:11;;;;;;;802.08;718.97;;;17.80;99.90;;;;;;5015168;28;21247;-65
2023/07/09 04:37:39;;;;;;;818.45;729.72;;;18.00;57.80;;;;;;5015991;28;20427;-64
2023/07/09 04:40:10;;;;;;;862.87;772.17;;;18.20;1.00;;;;;;5017119;28;20977;-64
2023/07/09 04:42:41;;;;;;;864.03;770.63;;;18.40;1.00;;;;;;5020220;28;20836;-64
2023/07/09 04:45:10;;;;;;;883.83;783.58;;;18.50;99.90;;;;;;5017175;28;20921;-64
2023/07/09 04:47:37;;;;;;;980.28;767.20;;;18.80;99.90;;;;;;5018366;28;20462;-64
2023/07/09 04:50:09;;;;;;;978.42;804.55;;;19.30;99.90;;;;;;5017570;28;20536;-64
2023/07/09 04:52:36;;;;;;;1002.47;805.72;;;19.90;99.90;;;;;;5015743;28;20433;-64
2023/07/09 04:55:03;;;;;;;1002.33;811.10;;;20.40;12.60;;;;;;5016396;28;20484;-64
2023/07/09 04:57:29;;;;;;;959.72;858.72;;;20.90;1.00;;;;;;5018208;28;20524;-64
2023/07/09 04:59:56;;;;;;;1006.58;897.22;;;21.30;99.90;;;;;;5016889;28;20488;-64
2023/07/09 05:02:24;;;;;;;1021.03;924.20;;;21.80;99.90;;;;;;5018285;28;20477;-64
2023/07/09 05:04:51;;;;;;;942.90;859.47;;;22.20;1.00;;;;;;5018543;28;20840;-64
2023/07/09 05:07:18;;;;;;;741.58;678.35;;;22.60;1.00;;;;;;5016868;28;21024;-64
2023/07/09 05:09:45;;;;;;;1054.40;951.22;;;23.00;99.90;;;;;;5014834;28;20437;-64
2023/07/09 05:12:12;;;;;;;1031.32;928.17;;;23.20;99.90;;;;;;5017885;28;20434;-64
2023/07/09 05:14:39;;;;;;;1037.82;940.17;;;23.40;99.90;;;;;;5021525;28;20473;-64
2023/07/09 05:17:07;;;;;;;825.47;756.35;;;23.60;99.90;;;;;;5016175;28;20857;-64
2023/07/09 05:19:35;;;;;;;336.88;308.35;;;23.90;99.90;;;;;;5013778;28;20438;-64
2023/07/09 05:22:05;;;;;;;226.98;207.38;;;24.40;99.90;;;;;;5015862;28;20985;-64
2023/07/09 05:24:32;;;;;;;348.88;318.33;;;24.50;99.90;;;;;;5014529;28;20435;-64
2023/07/09 05:26:59;;;;;;;104.28;95.90;;;24.70;99.90;;;;;;5018224;28;20527;-65
2023/07/09 05:29:26;;;;;;;738.13;670.75;;;25.20;99.90;;;;;;5016674;28;20471;-64
2023/07/09 05:31:53;;;;;;;578.55;524.58;;;25.50;99.90;;;;;;5016430;28;20430;-64
2023/07/09 05:34:21;;;;;;;1121.35;999.90;;;25.80;99.90;;;;;;5018097;28;20497;-64
2023/07/09 05:36:48;;;;;;;745.50;680.25;;;26.00;99.90;;;;;;5017292;28;20439;-64
2023/07/09 05:39:16;;;;;;;1151.88;999.90;;;26.00;99.90;;;;;;5017381;28;20535;-64
2023/07/09 05:41:43;;;;;;;1094.93;976.35;;;26.40;99.90;;;;;;5016573;28;20466;-64
2023/07/09 05:44:10;;;;;;;1142.63;999.90;;;27.10;99.90;;;;;;5010033;28;20539;-64
2023/07/09 05:46:37;;;;;;;1054.35;944.60;;;27.40;99.90;;;;;;5013626;28;20542;-64
2023/07/09 05:49:06;;;;;;;1159.18;999.90;;;27.90;99.90;;;;;;5015610;28;20522;-64
2023/07/09 05:51:34;;;;;;;1149.27;999.90;;;28.40;99.90;;;;;;5013616;28;20552;-64
2023/07/09 06:01:36;;;;;;;1124.43;999.90;;;29.30;99.90;;;;;;5006931;28;20445;-64
2023/07/09 06:04:06;;;;;;;1107.93;989.50;;;29.50;99.90;;;;;;5013372;28;22667;-64
2023/07/09 06:06:33;;;;;;;1136.90;999.90;;;29.80;99.90;;;;;;5010704;28;20525;-64
2023/07/09 06:09:00;;;;;;;1139.43;999.90;;;30.10;99.90;;;;;;5012346;28;20905;-64
2023/07/09 06:11:26;;;;;;;1186.00;999.90;;;30.20;99.90;;;;;;5011570;28;20510;-63
2023/07/09 06:13:53;;;;;;;1112.65;994.67;;;30.60;99.90;;;;;;5011955;28;20466;-64
2023/07/09 06:16:20;;;;;;;1202.88;999.90;;;30.80;99.90;;;;;;5013723;28;20549;-64
2023/07/09 06:18:47;;;;;;;1225.60;999.90;;;31.20;99.90;;;;;;5010395;28;20435;-64
2023/07/09 06:21:17;;;;;;;1286.87;999.90;;;31.60;99.90;;;;;;5013154;28;20437;-64
2023/07/09 06:23:45;;;;;;;1304.32;999.90;;;31.60;99.90;;;;;;5011572;28;21810;-64
2023/07/09 06:26:12;;;;;;;1221.65;999.90;;;31.80;99.90;;;;;;5010630;28;20471;-64
2023/07/09 06:28:39;;;;;;;1277.30;999.90;;;31.80;99.90;;;;;;4999832;28;20431;-63
2023/07/09 06:31:06;;;;;;;1291.70;999.90;;;32.10;99.90;;;;;;5014472;28;20433;-64
2023/07/09 06:33:34;;;;;;;1285.67;999.90;;;32.10;99.90;;;;;;5013781;28;20508;-64
2023/07/09 06:36:01;;;;;;;1252.97;999.90;;;32.20;99.90;;;;;;5012479;28;20801;-63
2023/07/09 06:38:29;;;;;;;1018.22;933.63;;;32.20;99.90;;;;;;5012608;28;20649;-63
2023/07/09 06:40:57;;;;;;;978.75;897.95;;;32.60;99.90;;;;;;5016484;28;20433;-60
2023/07/09 06:43:24;;;;;;;1207.40;999.90;;;32.80;99.90;;;;;;5014353;28;20430;-60
2023/07/09 06:45:53;;;;;;;1246.57;999.90;;;32.70;99.90;;;;;;5013868;28;20445;-60
2023/07/09 06:48:20;;;;;;;51.53;46.22;;;32.10;99.90;;;;;;5008292;28;20439;-59
2023/07/09 06:50:47;;;;;;;3.80;3.50;;;31.50;99.90;;;;;;4995122;28;20428;-59
2023/07/09 06:53:14;;;;;;;0.65;0.63;;;31.10;99.90;;;;;;4994882;28;20438;-59
2023/07/09 06:55:42;;;;;;;365.23;332.48;;;31.20;99.90;;;;;;5009320;28;20493;-60
2023/07/09 06:58:12;;;;;;;0.70;0.70;;;31.10;99.90;;;;;;5013833;28;21087;-60
2023/07/09 07:00:40;;;;;;;1.50;0.90;;;31.30;99.90;;;;;;5009190;28;20435;-60
2023/07/09 07:03:07;;;;;;;356.92;324.75;;;31.70;99.90;;;;;;5013350;28;20526;-61
2023/07/09 07:05:36;;;;;;;646.10;589.55;;;32.20;99.90;;;;;;5013711;28;20421;-60
2023/07/09 07:08:03;;;;;;;1145.90;999.90;;;32.70;99.90;;;;;;5013077;28;20475;-60
2023/07/09 07:10:30;;;;;;;1167.95;999.90;;;32.60;99.90;;;;;;5011108;28;20438;-60
2023/07/09 07:12:57;;;;;;;1204.60;999.90;;;32.50;99.90;;;;;;5010109;28;20533;-60
2023/07/09 07:15:27;;;;;;;1180.30;999.90;;;32.60;99.90;;;;;;5013585;28;20516;-59
2023/07/09 07:17:54;;;;;;;1182.22;999.90;;;32.50;99.90;;;;;;5014400;28;20446;-60
2023/07/09 07:20:20;;;;;;;1217.10;999.90;;;32.70;99.90;;;;;;4994869;28;20445;-60
2023/07/09 07:22:47;;;;;;;1209.30;999.90;;;33.00;99.90;;;;;;5011159;28;20529;-59
2023/07/09 07:25:14;;;;;;;1199.78;999.90;;;32.50;99.90;;;;;;5013745;28;20484;-60
2023/07/09 07:27:41;;;;;;;1196.03;999.90;;;32.40;99.90;;;;;;5015300;28;20925;-60
2023/07/09 07:30:09;;;;;;;1212.43;999.90;;;32.60;99.90;;;;;;4998471;28;20559;-60
2023/07/09 07:32:38;;;;;;;774.13;701.40;;;32.70;99.90;;;;;;4992718;28;20698;-60
2023/07/09 07:35:05;;;;;;;397.70;364.55;;;32.50;99.90;;;;;;5014971;28;20435;-60
2023/07/09 07:37:32;;;;;;;1168.72;999.90;;;32.60;99.90;;;;;;5009281;28;20530;-60
2023/07/09 07:40:04;;;;;;;1158.80;999.90;;;32.90;99.90;;;;;;5006876;28;20652;-60
2023/07/09 07:42:31;;;;;;;1129.13;999.90;;;33.50;99.90;;;;;;5010822;28;20498;-60
2023/07/09 07:44:58;;;;;;;831.78;760.60;;;33.70;99.90;;;;;;5012686;28;20441;-60
2023/07/09 07:47:27;;;;;;;1147.93;999.90;;;32.80;99.90;;;;;;5009793;28;21039;-59
2023/07/09 07:49:57;;;;;;;622.95;570.08;;;32.60;99.90;;;;;;5012332;28;20465;-60
2023/07/09 07:52:24;;;;;;;1063.43;973.50;;;32.60;99.90;;;;;;5009852;28;20465;-60
2023/07/09 07:54:52;;;;;;;709.67;647.63;;;31.80;98.60;;;;;;5010859;28;20436;-60
2023/07/09 07:57:19;;;;;;;494.63;450.33;;;32.50;99.90;;;;;;5012957;28;20434;-60
2023/07/09 07:59:48;;;;;;;341.23;312.37;;;33.20;99.90;;;;;;5011010;28;21020;-60
2023/07/09 08:02:16;;;;;;;346.50;316.50;;;33.80;99.90;;;;;;5012032;28;20504;-60
2023/07/09 08:04:43;;;;;;;900.70;817.58;;;33.60;99.90;;;;;;5012547;28;20434;-61
2023/07/09 08:07:10;;;;;;;1201.50;999.90;;;33.70;99.90;;;;;;5013162;28;20435;-59
2023/07/09 08:09:37;;;;;;;1186.18;999.90;;;33.90;99.90;;;;;;5008711;28;20443;-60
2023/07/09 08:12:09;;;;;;;1005.70;921.87;;;33.50;99.90;;;;;;4990660;28;20921;-60
2023/07/09 08:14:46;;;;;;;1139.75;999.90;;;34.00;99.90;;;;;;5009817;28;20423;-60
2023/07/09 08:17:12;;;;;;;648.70;592.10;;;34.50;99.90;;;;;;4993620;28;20447;-60
2023/07/09 08:19:46;;;;;;;708.00;648.42;;;34.30;99.90;;;;;;5011420;28;20466;-59
2023/07/09 08:22:14;;;;;;;91.40;84.53;;;34.70;99.90;;;;;;5009162;28;20506;-60
2023/07/09 08:24:42;;;;;;;353.23;322.42;;;34.90;99.90;;;;;;5010321;28;20525;-60
2023/07/09 08:27:09;;;;;;;512.85;466.33;;;34.90;99.90;;;;;;5007272;28;20485;-59
2023/07/09 08:29:41;;;;;;;332.38;303.17;;;35.20;99.90;;;;;;5009397;28;20850;-58
2023/07/09 08:32:09;;;;;;;1160.90;999.90;;;34.70;99.90;;;;;;5007602;28;20439;-58
2023/07/09 08:34:40;;;;;;;0.85;0.85;;;34.00;99.90;;;;;;5005422;28;20427;-59
2023/07/09 08:37:29;;;;;;;1.67;1.35;;;33.40;99.90;;;;;;5009147;28;20560;-59
2023/07/09 08:39:56;;;;;;;0.98;0.98;;;33.90;99.90;;;;;;5010305;28;20435;-61
2023/07/09 08:42:38;;;;;;;1.00;0.90;;;34.30;99.90;;;;;;5012453;28;21935;-59
2023/07/09 08:45:32;;;;;;;146.88;133.48;;;35.00;99.90;;;;;;5013611;28;20449;-60
2023/07/09 08:48:05;;;;;;;67.25;58.38;;;35.60;99.90;;;;;;5014870;28;20441;-60
2023/07/09 08:51:09;;;;;;;17.05;14.95;;;35.90;99.90;;;;;;5015225;28;21073;-59
2023/07/09 08:53:48;;;;;;;1215.63;999.90;;;35.30;99.90;;;;;;4998076;28;20664;-59
2023/07/09 08:56:16;;;;;;;1197.20;999.90;;;34.10;99.90;;;;;;5012767;28;21120;-59
2023/07/09 08:58:44;;;;;;;1223.57;999.90;;;34.20;99.90;;;;;;5009016;28;20464;-59
2023/07/09 09:01:24;;;;;;;1251.85;999.90;;;34.30;99.90;;;;;;5012344;28;20817;-59
2023/07/09 09:04:25;;;;;;;1240.77;999.90;;;34.70;99.90;;;;;;5017860;28;20434;-59
2023/07/09 09:07:06;;;;;;;1221.00;999.90;;;34.60;99.90;;;;;;4911375;29;20522;-59
2023/07/09 09:09:39;;;;;;;1256.22;999.90;;;34.20;99.90;;;;;;4900594;29;20515;-60
2023/07/09 09:12:32;;;;;;;1246.30;999.90;;;34.90;99.90;;;;;;4905788;29;20471;-59
2023/07/09 09:15:16;;;;;;;1164.53;999.90;;;35.00;99.90;;;;;;4908450;29;20594;-60
2023/07/09 09:17:43;;;;;;;1197.82;999.90;;;34.60;99.90;;;;;;4903766;29;20471;-59
2023/07/09 09:20:15;;;;;;;1132.03;999.90;;;34.40;99.90;;;;;;4908697;29;20594;-59
2023/07/09 09:22:47;;;;;;;1232.10;999.90;;;34.60;99.90;;;;;;4896853;29;20509;-59
2023/07/09 09:25:14;;;;;;;1225.07;999.90;;;34.30;99.90;;;;;;4913005;29;20854;-59
2023/07/09 09:27:41;;;;;;;1237.90;999.90;;;34.70;99.90;;;;;;4912397;29;20499;-59
2023/07/09 09:30:19;;;;;;;1246.00;999.90;;;34.90;99.90;;;;;;4911567;29;20447;-60
2023/07/09 09:32:55;;;;;;;1239.63;999.90;;;35.20;99.90;;;;;;4918764;29;20440;-60
2023/07/09 09:35:32;;;;;;;1230.00;999.90;;;35.10;99.90;;;;;;4899811;29;20447;-60
2023/07/09 09:38:00;;;;;;;1220.67;999.90;;;34.70;99.90;;;;;;4915628;29;20654;-60
2023/07/09 09:40:33;;;;;;;1183.13;999.90;;;34.70;99.90;;;;;;4910162;29;20453;-60
2023/07/09 09:43:02;;;;;;;1234.05;999.90;;;35.20;99.90;;;;;;4934547;28;20531;-62
2023/07/09 09:45:34;;;;;;;1212.23;999.90;;;35.10;99.90;;;;;;5008396;28;20437;-60
2023/07/09 09:48:15;;;;;;;1211.43;999.90;;;35.20;99.90;;;;;;5016356;28;20521;-61
2023/07/09 09:50:42;;;;;;;1237.10;999.90;;;35.60;99.90;;;;;;5012468;28;21464;-61
2023/07/09 09:53:23;;;;;;;1240.90;999.90;;;36.20;99.90;;;;;;5015156;28;21109;-61
2023/07/09 09:55:53;;;;;;;653.65;597.38;;;36.00;99.90;;;;;;5011793;28;20455;-61
2023/07/09 09:58:26;;;;;;;687.58;628.63;;;36.10;99.90;;;;;;5012615;28;20530;-60
2023/07/09 10:00:56;;;;;;;279.67;255.68;;;35.80;99.90;;;;;;5012261;28;20522;-62
2023/07/09 10:03:33;;;;;;;967.00;886.20;;;35.60;99.90;;;;;;5008563;28;20460;-61
2023/07/09 10:06:18;;;;;;;438.65;399.63;;;36.00;99.90;;;;;;5011296;28;20434;-60
2023/07/09 10:09:16;;;;;;;254.68;234.07;;;36.50;99.90;;;;;;5004646;28;20461;-62
2023/07/09 10:11:53;;;;;;;443.27;403.45;;;36.70;99.90;;;;;;5008732;28;20437;-61
2023/07/09 10:14:56;;;;;;;1200.00;999.90;;;36.70;99.90;;;;;;5005068;28;20526;-61
2023/07/09 10:17:32;;;;;;;398.45;364.13;;;36.70;99.90;;;;;;5006141;28;20478;-62
2023/07/09 10:20:08;;;;;;;434.38;396.48;;;37.00;99.90;;;;;;5011102;28;20438;-61
2023/07/09 10:23:00;;;;;;;1259.97;999.90;;;37.20;99.90;;;;;;5005298;28;20442;-61
2023/07/09 10:25:40;;;;;;;806.83;736.80;;;37.30;99.90;;;;;;5012373;28;20462;-61
2023/07/09 10:28:16;;;;;;;636.30;578.63;;;37.20;99.90;;;;;;5016843;28;20485;-61
2023/07/09 10:31:00;;;;;;;1278.53;999.90;;;37.00;99.90;;;;;;5015337;28;20429;-61
2023/07/09 10:33:36;;;;;;;1297.50;999.90;;;37.30;99.90;;;;;;5011543;28;20437;-61
2023/07/09 10:36:36;;;;;;;1263.00;999.90;;;37.40;99.90;;;;;;5029273;28;20429;-61
2023/07/09 10:39:15;;;;;;;1190.55;999.90;;;37.40;99.90;;;;;;5024588;28;20432;-61
2023/07/09 10:41:44;;;;;;;1218.40;999.90;;;36.50;99.90;;;;;;5022063;28;20526;-61
2023/07/09 10:44:19;;;;;;;1119.10;999.90;;;36.10;99.90;;;;;;5024508;28;20466;-61
2023/07/09 10:46:53;;;;;;;441.13;401.65;;;36.40;99.90;;;;;;5025650;28;20435;-61
2023/07/09 10:49:22;;;;;;;376.63;343.70;;;36.40;99.90;;;;;;5026449;28;20530;-61
2023/07/09 10:51:52;;;;;;;1034.43;948.27;;;36.90;99.90;;;;;;5028070;28;20527;-61
2023/07/09 10:54:28;;;;;;;520.30;476.30;;;36.90;99.90;;;;;;5023456;28;20514;-60
2023/07/09 10:57:21;;;;;;;1213.50;999.90;;;36.50;99.90;;;;;;5026947;28;20517;-60
2023/07/09 10:59:50;;;;;;;1175.82;999.90;;;36.70;99.90;;;;;;5027523;28;20947;-61
2023/07/09 11:02:24;;;;;;;1244.63;999.90;;;36.50;99.90;;;;;;5025712;28;20439;-60
2023/07/09 11:05:09;;;;;;;1034.97;939.30;;;36.70;99.90;;;;;;5024484;28;20437;-60
2023/07/09 11:07:45;;;;;;;1204.13;999.90;;;36.30;99.90;;;;;;5018053;28;20442;-61
2023/07/09 11:10:35;;;;;;;1039.47;944.03;;;36.60;99.90;;;;;;5027472;28;20461;-61
2023/07/09 11:13:25;;;;;;;1221.63;999.90;;;36.90;99.90;;;;;;5024034;28;20955;-60
2023/07/09 11:16:19;;;;;;;1073.70;972.33;;;36.80;99.90;;;;;;5026038;28;20435;-60
2023/07/09 11:19:00;;;;;;;184.63;168.37;;;36.40;99.90;;;;;;5029140;28;20459;-61
2023/07/09 11:21:26;;;;;;;568.55;517.95;;;36.70;99.90;;;;;;5023498;28;20442;-61
2023/07/09 11:23:59;;;;;;;314.65;285.92;;;37.30;99.90;;;;;;5014185;28;20454;-61
2023/07/09 11:26:29;;;;;;;644.25;586.40;;;37.70;99.90;;;;;;5020341;28;20917;-61
2023/07/09 11:29:17;;;;;;;986.45;899.78;;;38.10;99.90;;;;;;5026353;28;20435;-61
2023/07/09 11:31:49;;;;;;;833.03;761.50;;;38.70;99.90;;;;;;5031294;28;20551;-61
2023/07/09 11:34:20;;;;;;;46.65;43.40;;;38.20;99.90;;;;;;5027772;28;20439;-61
2023/07/09 11:36:59;;;;;;;244.88;225.50;;;38.00;99.90;;;;;;5029516;28;20466;-61
2023/07/09 11:39:39;;;;;;;1218.47;999.90;;;37.70;99.90;;;;;;5024930;28;20841;-61
2023/07/09 11:42:30;;;;;;;1225.43;999.90;;;37.60;99.90;;;;;;5016345;28;20530;-62
2023/07/09 11:45:27;;;;;;;1282.15;999.90;;;37.80;99.90;;;;;;5011452;28;20466;-61
2023/07/09 11:48:03;;;;;;;1223.50;999.90;;;38.20;99.90;;;;;;5012739;28;20489;-60
2023/07/09 11:50:46;;;;;;;1229.67;999.90;;;38.20;99.90;;;;;;5001446;28;20477;-60
2023/07/09 11:53:32;;;;;;;1215.87;999.90;;;37.90;99.90;;;;;;5007403;28;20438;-61
2023/07/09 11:56:00;;;;;;;934.50;855.50;;;38.10;99.90;;;;;;4990847;28;20434;-60
2023/07/09 11:58:27;;;;;;;1275.30;999.90;;;38.40;99.90;;;;;;5008572;28;20434;-61
2023/07/09 12:00:58;;;;;;;691.97;624.97;;;38.20;99.90;;;;;;4993005;28;20435;-61
2023/07/09 12:03:34;;;;;;;1072.75;984.17;;;38.40;99.90;;;;;;5010890;28;20438;-61
2023/07/09 12:06:05;;;;;;;1279.95;999.90;;;38.00;99.90;;;;;;5009094;28;20434;-60
2023/07/09 12:08:39;;;;;;;626.38;569.70;;;38.00;99.90;;;;;;5011165;28;20430;-61
2023/07/09 12:11:28;;;;;;;897.70;820.58;;;38.00;99.90;;;;;;5009190;28;20427;-60
2023/07/09 12:14:03;;;;;;;1200.80;999.90;;;38.00;99.90;;;;;;5014318;28;20561;-60
2023/07/09 12:16:34;;;;;;;1230.68;999.90;;;37.80;99.90;;;;;;5012881;28;20458;-61
2023/07/09 12:19:01;;;;;;;1055.25;963.33;;;37.90;99.90;;;;;;5010964;28;20496;-60
2023/07/09 12:21:31;;;;;;;1212.35;999.90;;;37.90;99.90;;;;;;5014996;28;20536;-60
2023/07/09 12:23:58;;;;;;;1070.20;979.55;;;38.20;99.90;;;;;;5015260;28;20442;-61
2023/07/09 12:26:31;;;;;;;1222.63;999.90;;;38.60;99.90;;;;;;5014052;28;20517;-60
2023/07/09 12:28:58;;;;;;;1252.88;999.90;;;38.50;99.90;;;;;;5014126;28;20438;-60
2023/07/09 12:31:28;;;;;;;1161.50;999.90;;;38.00;99.90;;;;;;5013952;28;21564;-61
2023/07/09 12:33:58;;;;;;;437.53;399.13;;;38.00;99.90;;;;;;5010570;28;20518;-60
2023/07/09 12:36:27;;;;;;;541.20;492.00;;;38.00;99.90;;;;;;5013925;28;20426;-61
2023/07/09 12:39:01;;;;;;;429.02;389.92;;;38.30;99.90;;;;;;5015034;28;20844;-60